sensor_id;sensor_type;location;lat;lon;timestamp;P1;durP1;ratioP1;P2;durP2;ratioP2
61741;SDS011;47650;49.848;9.620;2023-02-15T00:00:29;72.80;;;36.47;;
61741;SDS011;47650;49.848;9.620;2023-02-15T00:02:56;72.75;;;38.03;;
61741;SDS011;47650;49.848;9.620;2023-02-15T00:05:31;81.78;;;37.28;;
61741;SDS011;47650;49.848;9.620;2023-02-15T00:07:57;77.80;;;38.55;;
61741;SDS011;47650;49.848;9.620;2023-02-15T00:10:39;70.70;;;34.55;;
61741;SDS011;47650;49.848;9.620;2023-02-15T00:13:05;65.43;;;34.10;;
61741;SDS011;47650;49.848;9.620;2023-02-15T00:15:32;64.50;;;35.33;;
61741;SDS011;47650;49.848;9.620;2023-02-15T00:18:06;62.35;;;32.80;;
61741;SDS011;47650;49.848;9.620;2023-02-15T00:20:31;65.80;;;35.05;;
61741;SDS011;47650;49.848;9.620;2023-02-15T00:22:59;69.07;;;34.10;;
61741;SDS011;47650;49.848;9.620;2023-02-15T00:25:24;64.65;;;33.42;;
61741;SDS011;47650;49.848;9.620;2023-02-15T00:27:50;63.05;;;32.45;;
61741;SDS011;47650;49.848;9.620;2023-02-15T00:30:18;65.18;;;33.05;;
61741;SDS011;47650;49.848;9.620;2023-02-15T00:32:45;67.78;;;31.52;;
61741;SDS011;47650;49.848;9.620;2023-02-15T00:35:12;66.32;;;32.80;;
61741;SDS011;47650;49.848;9.620;2023-02-15T00:37:38;69.07;;;34.33;;
61741;SDS011;47650;49.848;9.620;2023-02-15T00:40:04;62.08;;;32.03;;
61741;SDS011;47650;49.848;9.620;2023-02-15T00:42:39;57.72;;;30.55;;
61741;SDS011;47650;49.848;9.620;2023-02-15T00:45:08;56.85;;;28.70;;
61741;SDS011;47650;49.848;9.620;2023-02-15T00:47:34;59.40;;;29.67;;
61741;SDS011;47650;49.848;9.620;2023-02-15T00:50:06;55.67;;;28.80;;
61741;SDS011;47650;49.848;9.620;2023-02-15T00:52:32;64.10;;;30.52;;
61741;SDS011;47650;49.848;9.620;2023-02-15T00:54:58;54.13;;;27.90;;
61741;SDS011;47650;49.848;9.620;2023-02-15T00:57:25;57.63;;;28.50;;
61741;SDS011;47650;49.848;9.620;2023-02-15T00:59:53;57.40;;;29.17;;
61741;SDS011;47650;49.848;9.620;2023-02-15T01:02:20;56.05;;;29.35;;
61741;SDS011;47650;49.848;9.620;2023-02-15T01:04:45;56.90;;;29.77;;
61741;SDS011;47650;49.848;9.620;2023-02-15T01:07:10;56.65;;;27.83;;
61741;SDS011;47650;49.848;9.620;2023-02-15T01:09:35;56.15;;;28.40;;
61741;SDS011;47650;49.848;9.620;2023-02-15T01:12:02;61.50;;;28.92;;
61741;SDS011;47650;49.848;9.620;2023-02-15T01:14:28;60.15;;;29.88;;
61741;SDS011;47650;49.848;9.620;2023-02-15T01:17:09;56.60;;;28.85;;
61741;SDS011;47650;49.848;9.620;2023-02-15T01:19:35;54.38;;;28.55;;
61741;SDS011;47650;49.848;9.620;2023-02-15T01:22:01;56.25;;;28.42;;
61741;SDS011;47650;49.848;9.620;2023-02-15T01:24:27;55.47;;;26.13;;
61741;SDS011;47650;49.848;9.620;2023-02-15T01:26:56;50.72;;;26.85;;
61741;SDS011;47650;49.848;9.620;2023-02-15T01:29:24;54.42;;;27.23;;
61741;SDS011;47650;49.848;9.620;2023-02-15T01:31:50;58.35;;;27.88;;
61741;SDS011;47650;49.848;9.620;2023-02-15T01:34:16;50.50;;;26.40;;
61741;SDS011;47650;49.848;9.620;2023-02-15T01:36:52;56.42;;;29.42;;
61741;SDS011;47650;49.848;9.620;2023-02-15T01:39:17;59.90;;;28.88;;
61741;SDS011;47650;49.848;9.620;2023-02-15T01:41:45;55.47;;;28.30;;
61741;SDS011;47650;49.848;9.620;2023-02-15T01:47:09;52.42;;;25.75;;
61741;SDS011;47650;49.848;9.620;2023-02-15T01:49:45;62.13;;;29.42;;
61741;SDS011;47650;49.848;9.620;2023-02-15T01:52:28;61.92;;;29.17;;
61741;SDS011;47650;49.848;9.620;2023-02-15T01:54:56;67.93;;;28.05;;
61741;SDS011;47650;49.848;9.620;2023-02-15T01:57:23;57.10;;;29.08;;
61741;SDS011;47650;49.848;9.620;2023-02-15T01:59:53;52.03;;;27.52;;
61741;SDS011;47650;49.848;9.620;2023-02-15T02:02:23;60.50;;;27.63;;
61741;SDS011;47650;49.848;9.620;2023-02-15T02:05:02;55.58;;;27.05;;
61741;SDS011;47650;49.848;9.620;2023-02-15T02:07:43;54.70;;;25.88;;
61741;SDS011;47650;49.848;9.620;2023-02-15T02:10:15;52.55;;;27.45;;
61741;SDS011;47650;49.848;9.620;2023-02-15T02:12:43;56.20;;;28.38;;
61741;SDS011;47650;49.848;9.620;2023-02-15T02:15:13;57.17;;;28.73;;
61741;SDS011;47650;49.848;9.620;2023-02-15T02:40:08;53.33;;;27.38;;
61741;SDS011;47650;49.848;9.620;2023-02-15T02:42:59;55.28;;;27.25;;
61741;SDS011;47650;49.848;9.620;2023-02-15T02:45:40;54.30;;;27.90;;
61741;SDS011;47650;49.848;9.620;2023-02-15T02:48:19;58.60;;;28.80;;
61741;SDS011;47650;49.848;9.620;2023-02-15T02:50:49;53.60;;;26.08;;
61741;SDS011;47650;49.848;9.620;2023-02-15T02:53:21;59.35;;;29.38;;
61741;SDS011;47650;49.848;9.620;2023-02-15T02:55:48;55.20;;;29.27;;
61741;SDS011;47650;49.848;9.620;2023-02-15T03:01:18;66.30;;;30.35;;
61741;SDS011;47650;49.848;9.620;2023-02-15T03:03:51;57.97;;;27.50;;
61741;SDS011;47650;49.848;9.620;2023-02-15T03:06:33;51.17;;;27.77;;
61741;SDS011;47650;49.848;9.620;2023-02-15T03:09:33;61.30;;;29.00;;
61741;SDS011;47650;49.848;9.620;2023-02-15T03:12:31;55.35;;;27.20;;
61741;SDS011;47650;49.848;9.620;2023-02-15T03:17:38;57.28;;;27.88;;
61741;SDS011;47650;49.848;9.620;2023-02-15T03:20:09;60.90;;;28.27;;
61741;SDS011;47650;49.848;9.620;2023-02-15T03:22:51;49.03;;;22.92;;
61741;SDS011;47650;49.848;9.620;2023-02-15T03:28:17;68.10;;;31.63;;
61741;SDS011;47650;49.848;9.620;2023-02-15T03:30:51;56.30;;;28.23;;
61741;SDS011;47650;49.848;9.620;2023-02-15T03:33:28;62.85;;;29.05;;
61741;SDS011;47650;49.848;9.620;2023-02-15T03:36:58;52.75;;;27.55;;
61741;SDS011;47650;49.848;9.620;2023-02-15T03:44:27;58.15;;;27.55;;
61741;SDS011;47650;49.848;9.620;2023-02-15T03:49:36;59.83;;;27.20;;
61741;SDS011;47650;49.848;9.620;2023-02-15T03:52:06;65.78;;;29.83;;
61741;SDS011;47650;49.848;9.620;2023-02-15T03:54:43;59.75;;;27.83;;
61741;SDS011;47650;49.848;9.620;2023-02-15T03:57:22;61.15;;;30.33;;
61741;SDS011;47650;49.848;9.620;2023-02-15T04:00:15;63.22;;;30.85;;
61741;SDS011;47650;49.848;9.620;2023-02-15T04:06:03;64.03;;;30.35;;
61741;SDS011;47650;49.848;9.620;2023-02-15T04:08:35;67.35;;;31.15;;
61741;SDS011;47650;49.848;9.620;2023-02-15T04:11:20;60.47;;;30.48;;
61741;SDS011;47650;49.848;9.620;2023-02-15T04:13:59;61.05;;;30.95;;
61741;SDS011;47650;49.848;9.620;2023-02-15T04:16:48;56.28;;;30.02;;
61741;SDS011;47650;49.848;9.620;2023-02-15T04:19:15;66.57;;;32.22;;
61741;SDS011;47650;49.848;9.620;2023-02-15T04:22:00;61.08;;;31.98;;
61741;SDS011;47650;49.848;9.620;2023-02-15T04:24:44;67.82;;;30.77;;
61741;SDS011;47650;49.848;9.620;2023-02-15T04:27:35;58.38;;;30.33;;
61741;SDS011;47650;49.848;9.620;2023-02-15T04:30:02;78.18;;;33.17;;
61741;SDS011;47650;49.848;9.620;2023-02-15T04:32:37;66.13;;;31.60;;
61741;SDS011;47650;49.848;9.620;2023-02-15T04:35:14;60.53;;;30.17;;
61741;SDS011;47650;49.848;9.620;2023-02-15T04:37:41;64.15;;;30.52;;
61741;SDS011;47650;49.848;9.620;2023-02-15T04:40:10;68.47;;;32.88;;
61741;SDS011;47650;49.848;9.620;2023-02-15T04:42:39;65.75;;;30.08;;
61741;SDS011;47650;49.848;9.620;2023-02-15T04:45:06;71.07;;;33.58;;
61741;SDS011;47650;49.848;9.620;2023-02-15T04:47:35;64.97;;;31.73;;
61741;SDS011;47650;49.848;9.620;2023-02-15T04:50:01;73.03;;;35.00;;
61741;SDS011;47650;49.848;9.620;2023-02-15T04:52:32;74.57;;;34.42;;
61741;SDS011;47650;49.848;9.620;2023-02-15T04:54:58;72.28;;;34.63;;
61741;SDS011;47650;49.848;9.620;2023-02-15T04:57:32;60.05;;;30.42;;
61741;SDS011;47650;49.848;9.620;2023-02-15T05:02:35;62.35;;;32.42;;
61741;SDS011;47650;49.848;9.620;2023-02-15T05:05:03;62.38;;;31.20;;
61741;SDS011;47650;49.848;9.620;2023-02-15T05:07:29;57.40;;;31.02;;
61741;SDS011;47650;49.848;9.620;2023-02-15T05:09:54;48.30;;;28.25;;
61741;SDS011;47650;49.848;9.620;2023-02-15T05:12:20;63.20;;;30.90;;
61741;SDS011;47650;49.848;9.620;2023-02-15T05:14:45;51.10;;;28.40;;
61741;SDS011;47650;49.848;9.620;2023-02-15T05:17:13;49.42;;;26.60;;
61741;SDS011;47650;49.848;9.620;2023-02-15T05:19:40;51.20;;;28.50;;
61741;SDS011;47650;49.848;9.620;2023-02-15T05:22:07;50.22;;;28.33;;
61741;SDS011;47650;49.848;9.620;2023-02-15T05:24:34;50.40;;;28.40;;
61741;SDS011;47650;49.848;9.620;2023-02-15T05:27:18;54.28;;;28.60;;
61741;SDS011;47650;49.848;9.620;2023-02-15T05:32:30;50.30;;;28.05;;
61741;SDS011;47650;49.848;9.620;2023-02-15T05:34:56;59.38;;;30.55;;
61741;SDS011;47650;49.848;9.620;2023-02-15T05:40:12;61.15;;;31.15;;
61741;SDS011;47650;49.848;9.620;2023-02-15T05:42:39;57.35;;;29.45;;
61741;SDS011;47650;49.848;9.620;2023-02-15T05:45:06;65.30;;;31.63;;
61741;SDS011;47650;49.848;9.620;2023-02-15T05:47:32;61.38;;;30.13;;
61741;SDS011;47650;49.848;9.620;2023-02-15T05:49:57;74.10;;;34.35;;
61741;SDS011;47650;49.848;9.620;2023-02-15T05:52:33;83.65;;;35.97;;
61741;SDS011;47650;49.848;9.620;2023-02-15T05:55:08;75.13;;;33.55;;
61741;SDS011;47650;49.848;9.620;2023-02-15T05:57:34;54.00;;;29.88;;
61741;SDS011;47650;49.848;9.620;2023-02-15T06:02:40;64.47;;;30.63;;
61741;SDS011;47650;49.848;9.620;2023-02-15T06:05:06;73.20;;;34.28;;
61741;SDS011;47650;49.848;9.620;2023-02-15T06:07:33;62.88;;;30.35;;
61741;SDS011;47650;49.848;9.620;2023-02-15T06:10:06;56.75;;;31.10;;
61741;SDS011;47650;49.848;9.620;2023-02-15T06:15:15;100.43;;;38.40;;
61741;SDS011;47650;49.848;9.620;2023-02-15T06:17:47;56.60;;;29.33;;
61741;SDS011;47650;49.848;9.620;2023-02-15T06:22:46;67.38;;;32.50;;
61741;SDS011;47650;49.848;9.620;2023-02-15T06:25:16;74.57;;;33.70;;
61741;SDS011;47650;49.848;9.620;2023-02-15T06:27:42;79.25;;;33.60;;
61741;SDS011;47650;49.848;9.620;2023-02-15T06:30:09;52.92;;;30.42;;
61741;SDS011;47650;49.848;9.620;2023-02-15T06:32:36;66.53;;;31.42;;
61741;SDS011;47650;49.848;9.620;2023-02-15T06:35:07;71.97;;;32.42;;
61741;SDS011;47650;49.848;9.620;2023-02-15T06:37:33;92.10;;;34.78;;
61741;SDS011;47650;49.848;9.620;2023-02-15T06:40:06;85.28;;;34.00;;
61741;SDS011;47650;49.848;9.620;2023-02-15T06:45:08;67.03;;;30.95;;
61741;SDS011;47650;49.848;9.620;2023-02-15T06:47:36;50.40;;;28.20;;
61741;SDS011;47650;49.848;9.620;2023-02-15T06:52:33;50.42;;;28.33;;
61741;SDS011;47650;49.848;9.620;2023-02-15T06:55:15;52.33;;;29.70;;
61741;SDS011;47650;49.848;9.620;2023-02-15T06:57:42;61.17;;;32.65;;
61741;SDS011;47650;49.848;9.620;2023-02-15T07:00:09;59.97;;;31.80;;
61741;SDS011;47650;49.848;9.620;2023-02-15T07:02:57;55.75;;;31.77;;
61741;SDS011;47650;49.848;9.620;2023-02-15T07:05:23;52.63;;;29.02;;
61741;SDS011;47650;49.848;9.620;2023-02-15T07:07:50;77.10;;;34.83;;
61741;SDS011;47650;49.848;9.620;2023-02-15T07:12:44;72.22;;;38.08;;
61741;SDS011;47650;49.848;9.620;2023-02-15T07:17:49;48.35;;;27.17;;
61741;SDS011;47650;49.848;9.620;2023-02-15T07:20:18;69.78;;;30.13;;
61741;SDS011;47650;49.848;9.620;2023-02-15T07:22:45;63.78;;;32.25;;
61741;SDS011;47650;49.848;9.620;2023-02-15T07:25:17;46.38;;;27.58;;
61741;SDS011;47650;49.848;9.620;2023-02-15T07:27:45;49.80;;;26.67;;
61741;SDS011;47650;49.848;9.620;2023-02-15T07:30:19;47.22;;;27.33;;
61741;SDS011;47650;49.848;9.620;2023-02-15T07:32:57;45.35;;;26.13;;
61741;SDS011;47650;49.848;9.620;2023-02-15T07:38:25;52.55;;;26.50;;
61741;SDS011;47650;49.848;9.620;2023-02-15T07:41:02;57.83;;;28.52;;
61741;SDS011;47650;49.848;9.620;2023-02-15T07:43:34;55.00;;;25.25;;
61741;SDS011;47650;49.848;9.620;2023-02-15T07:46:08;57.80;;;32.55;;
61741;SDS011;47650;49.848;9.620;2023-02-15T07:48:36;39.20;;;25.25;;
61741;SDS011;47650;49.848;9.620;2023-02-15T07:51:03;53.58;;;27.63;;
61741;SDS011;47650;49.848;9.620;2023-02-15T07:53:33;43.40;;;26.10;;
61741;SDS011;47650;49.848;9.620;2023-02-15T07:55:59;41.38;;;24.98;;
61741;SDS011;47650;49.848;9.620;2023-02-15T07:58:39;40.28;;;25.20;;
61741;SDS011;47650;49.848;9.620;2023-02-15T08:01:31;41.08;;;26.40;;
61741;SDS011;47650;49.848;9.620;2023-02-15T08:04:01;37.83;;;25.33;;
61741;SDS011;47650;49.848;9.620;2023-02-15T08:06:41;33.42;;;22.63;;
61741;SDS011;47650;49.848;9.620;2023-02-15T08:09:07;38.38;;;22.88;;
61741;SDS011;47650;49.848;9.620;2023-02-15T08:11:37;35.60;;;23.70;;
61741;SDS011;47650;49.848;9.620;2023-02-15T08:14:14;34.90;;;22.95;;
61741;SDS011;47650;49.848;9.620;2023-02-15T08:16:42;32.97;;;22.25;;
61741;SDS011;47650;49.848;9.620;2023-02-15T08:19:11;32.28;;;21.75;;
61741;SDS011;47650;49.848;9.620;2023-02-15T08:21:52;32.42;;;21.52;;
61741;SDS011;47650;49.848;9.620;2023-02-15T08:24:20;31.98;;;22.50;;
61741;SDS011;47650;49.848;9.620;2023-02-15T08:26:56;29.63;;;21.40;;
61741;SDS011;47650;49.848;9.620;2023-02-15T08:29:23;29.77;;;19.95;;
61741;SDS011;47650;49.848;9.620;2023-02-15T08:32:04;31.55;;;20.38;;
61741;SDS011;47650;49.848;9.620;2023-02-15T08:34:36;29.48;;;20.00;;
61741;SDS011;47650;49.848;9.620;2023-02-15T08:37:06;29.10;;;20.40;;
61741;SDS011;47650;49.848;9.620;2023-02-15T08:39:32;29.15;;;20.63;;
61741;SDS011;47650;49.848;9.620;2023-02-15T08:41:58;29.83;;;20.98;;
61741;SDS011;47650;49.848;9.620;2023-02-15T08:44:24;29.58;;;19.48;;
61741;SDS011;47650;49.848;9.620;2023-02-15T08:46:54;31.02;;;20.98;;
61741;SDS011;47650;49.848;9.620;2023-02-15T08:49:22;26.20;;;19.67;;
61741;SDS011;47650;49.848;9.620;2023-02-15T08:51:50;28.77;;;20.13;;
61741;SDS011;47650;49.848;9.620;2023-02-15T08:54:16;31.63;;;20.30;;
61741;SDS011;47650;49.848;9.620;2023-02-15T08:56:52;26.88;;;20.17;;
61741;SDS011;47650;49.848;9.620;2023-02-15T08:59:24;26.95;;;19.55;;
61741;SDS011;47650;49.848;9.620;2023-02-15T09:04:27;34.55;;;22.33;;
61741;SDS011;47650;49.848;9.620;2023-02-15T09:06:53;32.78;;;22.08;;
61741;SDS011;47650;49.848;9.620;2023-02-15T09:09:19;30.00;;;21.60;;
61741;SDS011;47650;49.848;9.620;2023-02-15T09:11:48;33.03;;;22.70;;
61741;SDS011;47650;49.848;9.620;2023-02-15T09:14:19;28.95;;;19.83;;
61741;SDS011;47650;49.848;9.620;2023-02-15T09:16:56;27.42;;;18.50;;
61741;SDS011;47650;49.848;9.620;2023-02-15T09:19:22;28.63;;;20.58;;
61741;SDS011;47650;49.848;9.620;2023-02-15T09:21:50;28.88;;;19.98;;
61741;SDS011;47650;49.848;9.620;2023-02-15T09:24:17;29.80;;;21.48;;
61741;SDS011;47650;49.848;9.620;2023-02-15T09:26:46;38.95;;;23.85;;
61741;SDS011;47650;49.848;9.620;2023-02-15T09:29:15;37.22;;;23.42;;
61741;SDS011;47650;49.848;9.620;2023-02-15T09:31:49;32.03;;;21.00;;
61741;SDS011;47650;49.848;9.620;2023-02-15T09:34:26;33.53;;;21.55;;
61741;SDS011;47650;49.848;9.620;2023-02-15T09:36:54;30.00;;;21.13;;
61741;SDS011;47650;49.848;9.620;2023-02-15T09:39:25;28.88;;;19.95;;
61741;SDS011;47650;49.848;9.620;2023-02-15T09:45:04;27.23;;;18.70;;
61741;SDS011;47650;49.848;9.620;2023-02-15T09:53:38;34.72;;;22.52;;
61741;SDS011;47650;49.848;9.620;2023-02-15T09:56:28;33.55;;;22.85;;
61741;SDS011;47650;49.848;9.620;2023-02-15T10:05:08;24.25;;;17.58;;
61741;SDS011;47650;49.848;9.620;2023-02-15T10:08:00;23.55;;;16.98;;
61741;SDS011;47650;49.848;9.620;2023-02-15T10:19:56;29.15;;;21.30;;
61741;SDS011;47650;49.848;9.620;2023-02-15T10:28:51;28.90;;;19.33;;
61741;SDS011;47650;49.848;9.620;2023-02-15T10:34:20;25.73;;;17.73;;
61741;SDS011;47650;49.848;9.620;2023-02-15T10:50:55;28.52;;;20.52;;
61741;SDS011;47650;49.848;9.620;2023-02-15T10:53:50;23.95;;;18.42;;
61741;SDS011;47650;49.848;9.620;2023-02-15T11:07:57;23.42;;;17.23;;
61741;SDS011;47650;49.848;9.620;2023-02-15T11:10:30;25.42;;;18.70;;
61741;SDS011;47650;49.848;9.620;2023-02-15T11:13:18;24.63;;;18.45;;
61741;SDS011;47650;49.848;9.620;2023-02-15T11:15:56;24.90;;;18.10;;
61741;SDS011;47650;49.848;9.620;2023-02-15T11:18:34;23.98;;;18.10;;
61741;SDS011;47650;49.848;9.620;2023-02-15T11:23:46;24.70;;;19.33;;
61741;SDS011;47650;49.848;9.620;2023-02-15T11:32:24;28.35;;;20.45;;
61741;SDS011;47650;49.848;9.620;2023-02-15T11:38:24;27.83;;;20.75;;
61741;SDS011;47650;49.848;9.620;2023-02-15T11:41:28;26.77;;;19.70;;
61741;SDS011;47650;49.848;9.620;2023-02-15T11:46:41;35.55;;;26.92;;
61741;SDS011;47650;49.848;9.620;2023-02-15T11:49:10;30.45;;;23.00;;
61741;SDS011;47650;49.848;9.620;2023-02-15T11:51:55;28.63;;;21.58;;
61741;SDS011;47650;49.848;9.620;2023-02-15T11:54:30;30.30;;;23.60;;
61741;SDS011;47650;49.848;9.620;2023-02-15T11:57:44;26.73;;;20.85;;
61741;SDS011;47650;49.848;9.620;2023-02-15T12:02:40;26.15;;;20.23;;
61741;SDS011;47650;49.848;9.620;2023-02-15T12:05:20;26.95;;;20.27;;
61741;SDS011;47650;49.848;9.620;2023-02-15T12:07:50;26.65;;;21.52;;
61741;SDS011;47650;49.848;9.620;2023-02-15T12:10:22;28.13;;;21.73;;
61741;SDS011;47650;49.848;9.620;2023-02-15T12:13:12;27.95;;;21.38;;
61741;SDS011;47650;49.848;9.620;2023-02-15T12:15:42;30.17;;;21.83;;
61741;SDS011;47650;49.848;9.620;2023-02-15T12:21:10;26.35;;;20.50;;
61741;SDS011;47650;49.848;9.620;2023-02-15T12:23:52;27.17;;;20.85;;
61741;SDS011;47650;49.848;9.620;2023-02-15T12:28:57;44.73;;;34.97;;
61741;SDS011;47650;49.848;9.620;2023-02-15T12:31:35;35.95;;;27.55;;
61741;SDS011;47650;49.848;9.620;2023-02-15T12:34:24;34.20;;;26.02;;
61741;SDS011;47650;49.848;9.620;2023-02-15T12:36:57;33.30;;;23.33;;
61741;SDS011;47650;49.848;9.620;2023-02-15T12:39:27;28.00;;;21.90;;
61741;SDS011;47650;49.848;9.620;2023-02-15T12:42:02;31.63;;;24.00;;
61741;SDS011;47650;49.848;9.620;2023-02-15T12:47:44;30.60;;;23.42;;
61741;SDS011;47650;49.848;9.620;2023-02-15T12:53:13;40.17;;;29.45;;
61741;SDS011;47650;49.848;9.620;2023-02-15T12:55:57;29.95;;;21.42;;
61741;SDS011;47650;49.848;9.620;2023-02-15T12:58:34;26.85;;;21.58;;
61741;SDS011;47650;49.848;9.620;2023-02-15T13:04:03;29.55;;;22.85;;
61741;SDS011;47650;49.848;9.620;2023-02-15T13:06:35;33.72;;;26.30;;
61741;SDS011;47650;49.848;9.620;2023-02-15T13:09:36;30.15;;;22.77;;
61741;SDS011;47650;49.848;9.620;2023-02-15T13:14:57;26.17;;;20.67;;
61741;SDS011;47650;49.848;9.620;2023-02-15T13:17:31;29.15;;;21.77;;
61741;SDS011;47650;49.848;9.620;2023-02-15T13:20:06;28.00;;;21.48;;
61741;SDS011;47650;49.848;9.620;2023-02-15T13:22:50;27.42;;;20.63;;
61741;SDS011;47650;49.848;9.620;2023-02-15T13:25:30;32.73;;;24.80;;
61741;SDS011;47650;49.848;9.620;2023-02-15T13:28:10;32.42;;;23.73;;
61741;SDS011;47650;49.848;9.620;2023-02-15T13:30:45;31.23;;;23.42;;
61741;SDS011;47650;49.848;9.620;2023-02-15T13:33:24;31.00;;;23.15;;
61741;SDS011;47650;49.848;9.620;2023-02-15T13:36:10;33.33;;;25.17;;
61741;SDS011;47650;49.848;9.620;2023-02-15T13:39:02;33.10;;;23.80;;
61741;SDS011;47650;49.848;9.620;2023-02-15T13:56:11;31.40;;;22.92;;
61741;SDS011;47650;49.848;9.620;2023-02-15T13:59:10;30.42;;;22.55;;
61741;SDS011;47650;49.848;9.620;2023-02-15T14:01:58;31.70;;;22.27;;
61741;SDS011;47650;49.848;9.620;2023-02-15T14:07:49;34.35;;;24.45;;
61741;SDS011;47650;49.848;9.620;2023-02-15T14:10:38;31.05;;;23.75;;
61741;SDS011;47650;49.848;9.620;2023-02-15T14:21:42;34.65;;;26.20;;
61741;SDS011;47650;49.848;9.620;2023-02-15T14:30:18;36.08;;;25.20;;
61741;SDS011;47650;49.848;9.620;2023-02-15T14:35:52;34.08;;;24.65;;
61741;SDS011;47650;49.848;9.620;2023-02-15T14:47:14;33.30;;;24.30;;
61741;SDS011;47650;49.848;9.620;2023-02-15T14:50:16;37.60;;;26.08;;
61741;SDS011;47650;49.848;9.620;2023-02-15T14:55:47;36.83;;;25.00;;
61741;SDS011;47650;49.848;9.620;2023-02-15T14:58:12;36.10;;;25.95;;
61741;SDS011;47650;49.848;9.620;2023-02-15T15:00:42;37.28;;;27.17;;
61741;SDS011;47650;49.848;9.620;2023-02-15T15:03:19;34.42;;;25.48;;
61741;SDS011;47650;49.848;9.620;2023-02-15T15:05:48;35.45;;;25.95;;
61741;SDS011;47650;49.848;9.620;2023-02-15T15:17:03;37.50;;;26.30;;
61741;SDS011;47650;49.848;9.620;2023-02-15T15:22:27;35.50;;;25.80;;
61741;SDS011;47650;49.848;9.620;2023-02-15T15:25:01;40.28;;;27.63;;
61741;SDS011;47650;49.848;9.620;2023-02-15T15:32:59;37.88;;;27.17;;
61741;SDS011;47650;49.848;9.620;2023-02-15T15:47:18;44.28;;;30.00;;
61741;SDS011;47650;49.848;9.620;2023-02-15T15:49:59;38.88;;;26.90;;
61741;SDS011;47650;49.848;9.620;2023-02-15T15:52:28;36.42;;;26.90;;
61741;SDS011;47650;49.848;9.620;2023-02-15T15:55:03;39.00;;;27.20;;
61741;SDS011;47650;49.848;9.620;2023-02-15T15:57:32;34.85;;;25.83;;
61741;SDS011;47650;49.848;9.620;2023-02-15T16:00:04;34.95;;;26.30;;
61741;SDS011;47650;49.848;9.620;2023-02-15T16:03:29;35.08;;;23.67;;
61741;SDS011;47650;49.848;9.620;2023-02-15T16:06:02;37.58;;;25.90;;
61741;SDS011;47650;49.848;9.620;2023-02-15T16:08:37;34.63;;;24.70;;
61741;SDS011;47650;49.848;9.620;2023-02-15T16:16:58;34.20;;;24.08;;
61741;SDS011;47650;49.848;9.620;2023-02-15T16:22:30;37.53;;;25.13;;
61741;SDS011;47650;49.848;9.620;2023-02-15T16:28:10;36.28;;;26.05;;
61741;SDS011;47650;49.848;9.620;2023-02-15T16:30:38;35.20;;;26.30;;
61741;SDS011;47650;49.848;9.620;2023-02-15T16:33:20;35.03;;;25.02;;
61741;SDS011;47650;49.848;9.620;2023-02-15T16:35:58;38.80;;;27.38;;
61741;SDS011;47650;49.848;9.620;2023-02-15T16:38:41;36.85;;;25.63;;
61741;SDS011;47650;49.848;9.620;2023-02-15T16:41:11;38.75;;;26.75;;
61741;SDS011;47650;49.848;9.620;2023-02-15T16:44:09;41.45;;;28.48;;
61741;SDS011;47650;49.848;9.620;2023-02-15T16:46:42;45.28;;;30.20;;
61741;SDS011;47650;49.848;9.620;2023-02-15T16:49:17;40.50;;;28.45;;
61741;SDS011;47650;49.848;9.620;2023-02-15T16:51:53;41.50;;;27.70;;
61741;SDS011;47650;49.848;9.620;2023-02-15T16:54:34;38.63;;;28.05;;
61741;SDS011;47650;49.848;9.620;2023-02-15T16:57:01;40.80;;;27.73;;
61741;SDS011;47650;49.848;9.620;2023-02-15T16:59:41;37.90;;;27.23;;
61741;SDS011;47650;49.848;9.620;2023-02-15T17:05:10;38.45;;;26.63;;
61741;SDS011;47650;49.848;9.620;2023-02-15T17:07:48;37.72;;;26.35;;
61741;SDS011;47650;49.848;9.620;2023-02-15T17:13:02;36.92;;;26.60;;
61741;SDS011;47650;49.848;9.620;2023-02-15T17:18:33;41.85;;;28.73;;
61741;SDS011;47650;49.848;9.620;2023-02-15T17:21:18;41.80;;;28.33;;
61741;SDS011;47650;49.848;9.620;2023-02-15T17:23:49;44.33;;;29.25;;
61741;SDS011;47650;49.848;9.620;2023-02-15T17:26:27;39.80;;;27.70;;
61741;SDS011;47650;49.848;9.620;2023-02-15T17:29:02;38.95;;;26.52;;
61741;SDS011;47650;49.848;9.620;2023-02-15T17:31:46;39.30;;;25.60;;
61741;SDS011;47650;49.848;9.620;2023-02-15T17:38:01;48.72;;;31.58;;
61741;SDS011;47650;49.848;9.620;2023-02-15T17:42:55;38.90;;;27.45;;
61741;SDS011;47650;49.848;9.620;2023-02-15T17:45:21;37.42;;;26.25;;
61741;SDS011;47650;49.848;9.620;2023-02-15T17:47:57;40.45;;;27.30;;
61741;SDS011;47650;49.848;9.620;2023-02-15T17:50:25;40.95;;;28.17;;
61741;SDS011;47650;49.848;9.620;2023-02-15T17:52:52;38.63;;;27.40;;
61741;SDS011;47650;49.848;9.620;2023-02-15T17:55:33;44.45;;;31.27;;
61741;SDS011;47650;49.848;9.620;2023-02-15T17:58:06;48.33;;;32.75;;
61741;SDS011;47650;49.848;9.620;2023-02-15T18:00:41;44.60;;;31.38;;
61741;SDS011;47650;49.848;9.620;2023-02-15T18:06:34;41.33;;;27.02;;
61741;SDS011;47650;49.848;9.620;2023-02-15T18:09:22;44.03;;;30.10;;
61741;SDS011;47650;49.848;9.620;2023-02-15T18:12:17;42.88;;;28.77;;
61741;SDS011;47650;49.848;9.620;2023-02-15T18:14:44;38.72;;;27.58;;
61741;SDS011;47650;49.848;9.620;2023-02-15T18:17:10;39.58;;;26.60;;
61741;SDS011;47650;49.848;9.620;2023-02-15T18:19:39;43.80;;;30.27;;
61741;SDS011;47650;49.848;9.620;2023-02-15T18:22:17;40.47;;;27.65;;
61741;SDS011;47650;49.848;9.620;2023-02-15T18:24:44;55.35;;;35.03;;
61741;SDS011;47650;49.848;9.620;2023-02-15T18:27:15;63.33;;;38.85;;
61741;SDS011;47650;49.848;9.620;2023-02-15T18:29:43;49.53;;;33.90;;
61741;SDS011;47650;49.848;9.620;2023-02-15T18:32:27;54.13;;;34.50;;
61741;SDS011;47650;49.848;9.620;2023-02-15T18:35:01;49.45;;;31.23;;
61741;SDS011;47650;49.848;9.620;2023-02-15T18:37:29;47.10;;;31.65;;
61741;SDS011;47650;49.848;9.620;2023-02-15T18:39:57;46.20;;;31.15;;
61741;SDS011;47650;49.848;9.620;2023-02-15T18:42:33;42.95;;;30.00;;
61741;SDS011;47650;49.848;9.620;2023-02-15T18:45:00;52.65;;;34.05;;
61741;SDS011;47650;49.848;9.620;2023-02-15T18:50:43;55.35;;;32.97;;
61741;SDS011;47650;49.848;9.620;2023-02-15T18:53:16;50.78;;;32.70;;
61741;SDS011;47650;49.848;9.620;2023-02-15T18:55:44;49.08;;;31.80;;
61741;SDS011;47650;49.848;9.620;2023-02-15T19:00:45;53.85;;;33.05;;
61741;SDS011;47650;49.848;9.620;2023-02-15T19:03:13;53.38;;;32.10;;
61741;SDS011;47650;49.848;9.620;2023-02-15T19:05:43;56.17;;;34.30;;
61741;SDS011;47650;49.848;9.620;2023-02-15T19:10:43;59.13;;;34.17;;
61741;SDS011;47650;49.848;9.620;2023-02-15T19:13:09;54.72;;;34.78;;
61741;SDS011;47650;49.848;9.620;2023-02-15T19:15:40;57.78;;;33.30;;
61741;SDS011;47650;49.848;9.620;2023-02-15T19:18:13;54.30;;;33.83;;
61741;SDS011;47650;49.848;9.620;2023-02-15T19:20:41;51.55;;;33.00;;
61741;SDS011;47650;49.848;9.620;2023-02-15T19:23:20;58.75;;;33.63;;
61741;SDS011;47650;49.848;9.620;2023-02-15T19:25:51;53.05;;;32.78;;
61741;SDS011;47650;49.848;9.620;2023-02-15T19:28:19;63.65;;;35.75;;
61741;SDS011;47650;49.848;9.620;2023-02-15T19:30:54;62.28;;;38.08;;
61741;SDS011;47650;49.848;9.620;2023-02-15T19:33:21;59.25;;;35.30;;
61741;SDS011;47650;49.848;9.620;2023-02-15T19:35:57;52.10;;;34.17;;
61741;SDS011;47650;49.848;9.620;2023-02-15T19:38:25;55.90;;;35.63;;
61741;SDS011;47650;49.848;9.620;2023-02-15T19:41:06;54.03;;;33.90;;